Time;durP1;ratioP1;P1;durP2;ratioP2;P2;SDS_P1;SDS_P2;PMS_P1;PMS_P2;Temp;Humidity;BMP_temperature;BMP_pressure;BME280_temperature;BME280_humidity;BME280_pressure;Samples;Min_cycle;Max_cycle;Signal;HPM_P1;HPM_P2
2021/11/30 00:01:46;;;;;;;13.93;12.97;;;1.70;99.90;;;;;;6191461;23;20472;-78
2021/11/30 00:04:13;;;;;;;14.10;13.20;;;1.70;99.90;;;;;;6216201;23;20419;-78
2021/11/30 00:06:42;;;;;;;14.43;13.53;;;1.80;99.90;;;;;;6217417;23;20389;-78
2021/11/30 00:09:24;;;;;;;14.80;13.90;;;1.80;99.90;;;;;;6218416;23;20388;-79
2021/11/30 00:11:50;;;;;;;14.20;13.37;;;1.80;99.90;;;;;;6217750;23;20381;-77
2021/11/30 00:14:17;;;;;;;14.30;13.40;;;1.80;99.90;;;;;;6218117;23;20475;-77
2021/11/30 00:16:44;;;;;;;14.53;13.63;;;1.80;99.90;;;;;;6190548;23;20420;-79
2021/11/30 00:19:11;;;;;;;14.23;13.33;;;1.80;99.90;;;;;;6216185;23;20472;-79
2021/11/30 00:21:38;;;;;;;15.00;14.00;;;1.90;99.90;;;;;;6216835;23;20798;-79
2021/11/30 00:24:06;;;;;;;14.20;13.30;;;1.80;99.90;;;;;;6217269;23;20410;-79
2021/11/30 00:26:33;;;;;;;13.70;12.90;;;1.80;99.90;;;;;;6217521;23;20432;-78
2021/11/30 00:29:02;;;;;;;13.93;13.03;;;1.80;99.90;;;;;;6190977;23;20490;-79
2021/11/30 00:31:28;;;;;;;13.60;12.70;;;1.80;99.90;;;;;;6215929;23;20455;-78
2021/11/30 00:33:55;;;;;;;13.67;12.87;;;1.80;99.90;;;;;;6216193;23;20434;-79
2021/11/30 00:36:22;;;;;;;13.67;12.87;;;1.80;99.90;;;;;;6216087;23;20812;-79
2021/11/30 00:38:49;;;;;;;13.77;12.90;;;1.80;99.90;;;;;;6216046;23;20462;-79
2021/11/30 00:41:17;;;;;;;14.13;13.23;;;1.80;99.90;;;;;;6217504;23;20455;-78
2021/11/30 00:43:44;;;;;;;13.93;13.13;;;1.80;99.90;;;;;;6215950;23;20443;-79
2021/11/30 00:46:15;;;;;;;13.60;12.90;;;1.80;99.90;;;;;;6215725;23;20472;-79
2021/11/30 00:48:42;;;;;;;14.10;13.20;;;1.80;99.90;;;;;;6217833;23;20386;-79
2021/11/30 00:51:12;;;;;;;14.10;13.20;;;1.80;99.90;;;;;;6218189;23;20389;-79
2021/11/30 00:53:40;;;;;;;14.40;13.40;;;1.80;99.90;;;;;;6190973;23;20426;-78
2021/11/30 00:56:07;;;;;;;14.50;13.60;;;1.80;99.90;;;;;;6191408;23;20920;-79
2021/11/30 00:58:36;;;;;;;13.90;13.10;;;1.80;99.90;;;;;;6190298;23;20465;-78
2021/11/30 01:01:04;;;;;;;14.30;13.40;;;1.80;99.90;;;;;;6217874;23;20790;-79
2021/11/30 01:03:30;;;;;;;14.00;13.10;;;1.80;99.90;;;;;;6191415;23;20432;-79
2021/11/30 01:05:57;;;;;;;13.90;13.07;;;1.90;99.90;;;;;;6218474;23;20414;-79
2021/11/30 01:08:24;;;;;;;13.97;13.07;;;1.80;99.90;;;;;;6191113;23;20415;-77
2021/11/30 01:10:51;;;;;;;14.10;13.20;;;1.90;99.90;;;;;;6218191;23;20441;-80
2021/11/30 01:13:19;;;;;;;14.70;13.80;;;1.90;99.90;;;;;;6190747;23;20483;-78
2021/11/30 01:15:47;;;;;;;14.40;13.50;;;1.90;99.90;;;;;;6190306;23;20750;-79
2021/11/30 01:18:15;;;;;;;13.80;13.00;;;1.90;99.90;;;;;;6191563;23;20504;-78
2021/11/30 01:20:42;;;;;;;14.03;13.23;;;1.90;99.90;;;;;;6191081;23;20792;-79
2021/11/30 01:23:10;;;;;;;13.90;13.10;;;2.00;99.90;;;;;;6190788;23;20490;-78
2021/11/30 01:25:37;;;;;;;14.80;13.80;;;1.90;99.90;;;;;;6217497;23;20437;-77
2021/11/30 01:28:04;;;;;;;14.73;13.73;;;1.90;99.90;;;;;;6190706;23;20421;-79
2021/11/30 01:30:31;;;;;;;14.13;13.23;;;2.00;99.90;;;;;;6190942;23;20410;-78
2021/11/30 01:33:00;;;;;;;14.60;13.70;;;2.00;99.90;;;;;;6190801;23;20441;-78
2021/11/30 01:35:27;;;;;;;14.43;13.43;;;1.90;99.90;;;;;;6190784;23;20412;-77
2021/11/30 01:37:54;;;;;;;14.00;13.17;;;2.00;99.90;;;;;;6190507;23;20443;-78
2021/11/30 01:40:24;;;;;;;13.80;13.00;;;2.00;99.90;;;;;;6190750;23;20412;-79
2021/11/30 01:42:52;;;;;;;14.33;13.53;;;2.00;99.90;;;;;;6217935;23;20419;-79
2021/11/30 01:45:30;;;;;;;14.43;13.53;;;2.00;99.90;;;;;;6190373;23;20412;-78
2021/11/30 01:50:41;;;;;;;14.57;13.67;;;2.00;99.90;;;;;;6189044;23;20436;-79
2021/11/30 01:53:08;;;;;;;14.70;13.80;;;2.00;99.90;;;;;;6190702;23;20437;-78
2021/11/30 01:55:35;;;;;;;14.73;13.80;;;2.00;99.90;;;;;;6202267;23;20453;-79
2021/11/30 01:58:04;;;;;;;15.10;14.20;;;2.00;99.90;;;;;;6187746;23;20417;-78
2021/11/30 02:00:34;;;;;;;15.07;13.73;;;2.00;99.90;;;;;;6189043;23;20387;-78
2021/11/30 02:03:05;;;;;;;14.57;13.70;;;2.00;99.90;;;;;;6188152;23;20441;-77
2021/11/30 02:05:33;;;;;;;14.07;13.27;;;2.00;99.90;;;;;;6189274;23;20509;-79
2021/11/30 02:07:59;;;;;;;14.97;13.87;;;2.00;99.90;;;;;;6187528;23;20412;-79
2021/11/30 02:10:26;;;;;;;14.77;13.67;;;2.00;99.90;;;;;;6188051;23;20411;-78
2021/11/30 02:12:54;;;;;;;14.53;13.63;;;2.00;99.90;;;;;;6188863;23;20466;-78
2021/11/30 02:15:23;;;;;;;14.90;14.00;;;2.00;99.90;;;;;;6187377;23;20434;-78
2021/11/30 02:17:51;;;;;;;14.77;13.77;;;2.00;99.90;;;;;;6186913;23;20878;-78
2021/11/30 02:20:20;;;;;;;15.20;14.10;;;2.00;99.90;;;;;;6187229;23;20434;-77
2021/11/30 02:22:50;;;;;;;14.73;13.57;;;2.10;99.90;;;;;;6187617;23;20439;-78
2021/11/30 02:25:17;;;;;;;15.03;14.07;;;2.00;99.90;;;;;;6189274;23;20390;-79
2021/11/30 02:27:44;;;;;;;14.70;13.70;;;2.10;99.90;;;;;;6186778;23;20423;-79
2021/11/30 02:30:11;;;;;;;14.30;13.20;;;2.10;99.90;;;;;;6187563;23;20402;-77
2021/11/30 02:32:38;;;;;;;14.23;13.37;;;2.10;99.90;;;;;;6188373;23;20469;-77
2021/11/30 02:35:05;;;;;;;14.90;13.80;;;2.00;99.90;;;;;;6189520;23;20870;-79
2021/11/30 02:37:38;;;;;;;14.70;13.70;;;2.10;99.90;;;;;;6187390;23;20407;-78
2021/11/30 02:40:06;;;;;;;13.90;13.10;;;2.10;99.90;;;;;;6187912;23;20422;-79
2021/11/30 02:42:33;;;;;;;14.47;13.57;;;2.10;99.90;;;;;;6189100;23;20901;-79
2021/11/30 02:45:00;;;;;;;14.40;13.50;;;2.10;99.90;;;;;;6189287;23;20390;-79
2021/11/30 02:47:27;;;;;;;14.53;13.50;;;2.00;99.90;;;;;;6188727;23;20397;-79
2021/11/30 02:49:54;;;;;;;14.27;13.30;;;2.00;99.90;;;;;;6187406;23;20886;-77
2021/11/30 02:52:22;;;;;;;14.43;13.53;;;2.00;99.90;;;;;;6187306;23;20435;-78
2021/11/30 02:54:53;;;;;;;14.30;13.30;;;2.00;99.90;;;;;;6200364;23;20408;-78
2021/11/30 02:57:22;;;;;;;14.33;13.43;;;2.00;99.90;;;;;;6217481;23;20451;-78
2021/11/30 02:59:51;;;;;;;13.77;12.77;;;2.00;99.90;;;;;;6192771;23;20457;-78
2021/11/30 03:02:20;;;;;;;13.00;12.17;;;1.90;99.90;;;;;;6219441;23;20414;-77
2021/11/30 03:04:49;;;;;;;14.47;13.57;;;1.90;99.90;;;;;;6192300;23;20421;-80
2021/11/30 03:07:19;;;;;;;14.30;13.40;;;1.80;99.90;;;;;;6216967;23;20413;-79
2021/11/30 03:09:46;;;;;;;13.87;13.07;;;1.90;99.90;;;;;;6193162;23;20856;-79
2021/11/30 03:12:15;;;;;;;14.00;13.10;;;1.80;99.90;;;;;;6218955;23;20409;-78
2021/11/30 03:14:42;;;;;;;14.30;13.30;;;1.80;99.90;;;;;;6219113;23;20389;-78
2021/11/30 03:17:09;;;;;;;14.20;13.30;;;1.70;99.90;;;;;;6218414;23;20390;-78
2021/11/30 03:19:36;;;;;;;13.70;12.80;;;1.70;99.90;;;;;;6219165;23;20460;-79
2021/11/30 03:22:04;;;;;;;13.60;12.80;;;1.70;99.90;;;;;;6218741;23;20413;-79
2021/11/30 03:24:31;;;;;;;13.60;12.60;;;1.80;99.90;;;;;;6219163;23;20738;-78
2021/11/30 03:26:58;;;;;;;13.90;13.00;;;1.80;99.90;;;;;;6218860;23;20425;-79
2021/11/30 03:29:26;;;;;;;13.80;12.90;;;1.80;99.90;;;;;;6191980;23;20422;-79
2021/11/30 03:31:59;;;;;;;13.63;12.83;;;1.80;99.90;;;;;;6217192;23;20474;-78
2021/11/30 03:34:26;;;;;;;14.47;13.30;;;1.80;99.90;;;;;;6215638;23;20764;-79
2021/11/30 03:36:55;;;;;;;14.60;13.70;;;1.80;99.90;;;;;;6191044;23;20412;-79
2021/11/30 03:39:23;;;;;;;14.80;13.90;;;1.80;99.90;;;;;;6218898;23;20760;-78
2021/11/30 03:41:52;;;;;;;14.47;13.60;;;1.80;99.90;;;;;;6217757;23;20393;-78
2021/11/30 03:44:20;;;;;;;14.00;13.10;;;1.80;99.90;;;;;;6195677;23;20441;-76
2021/11/30 03:46:48;;;;;;;15.10;14.00;;;1.80;99.90;;;;;;6218097;23;20417;-76
2021/11/30 03:49:16;;;;;;;13.77;12.83;;;1.80;99.90;;;;;;6186809;23;20409;-76
2021/11/30 03:51:43;;;;;;;13.67;12.87;;;1.80;99.90;;;;;;6213819;23;20731;-78
2021/11/30 03:54:11;;;;;;;13.40;12.60;;;1.80;99.90;;;;;;6215177;23;20441;-77
2021/11/30 03:56:39;;;;;;;13.57;12.60;;;1.80;99.90;;;;;;6216784;23;20434;-76
2021/11/30 03:59:06;;;;;;;14.53;13.33;;;1.80;99.90;;;;;;6189907;23;20898;-78
2021/11/30 04:01:33;;;;;;;13.60;12.70;;;1.80;99.90;;;;;;6215912;23;20889;-78
2021/11/30 04:04:04;;;;;;;13.43;12.60;;;1.80;99.90;;;;;;6216524;23;20976;-78
2021/11/30 04:06:30;;;;;;;13.60;12.80;;;1.80;99.90;;;;;;6215078;23;20416;-77
2021/11/30 04:08:57;;;;;;;13.80;12.90;;;1.80;99.90;;;;;;6190027;23;20829;-77
2021/11/30 04:11:24;;;;;;;14.13;13.03;;;1.80;99.90;;;;;;6214573;23;20417;-76
2021/11/30 04:13:51;;;;;;;13.53;12.73;;;1.90;99.90;;;;;;6214837;23;20909;-78
2021/11/30 04:16:19;;;;;;;13.53;12.53;;;1.90;99.90;;;;;;6214077;23;20465;-76
2021/11/30 04:18:46;;;;;;;13.60;12.60;;;1.90;99.90;;;;;;6214771;23;20460;-77
2021/11/30 04:21:14;;;;;;;13.47;12.67;;;1.90;99.90;;;;;;6188685;23;20417;-75
2021/11/30 04:23:41;;;;;;;13.00;12.00;;;1.90;99.90;;;;;;6215882;23;20801;-76
2021/11/30 04:26:08;;;;;;;13.37;12.40;;;1.90;99.90;;;;;;6215113;23;20455;-76
2021/11/30 04:28:35;;;;;;;13.67;12.67;;;1.90;99.90;;;;;;6215406;23;20807;-76
2021/11/30 04:31:02;;;;;;;13.50;12.70;;;1.90;99.90;;;;;;6216560;23;20383;-77
2021/11/30 04:33:29;;;;;;;13.10;12.20;;;1.90;99.90;;;;;;6189464;23;20444;-77
2021/11/30 04:35:55;;;;;;;13.80;12.90;;;2.00;99.90;;;;;;6215839;23;20387;-75
2021/11/30 04:38:24;;;;;;;13.27;12.37;;;2.00;99.90;;;;;;6213957;23;20920;-77
2021/11/30 04:40:50;;;;;;;13.37;12.47;;;2.00;99.90;;;;;;6215535;23;20515;-77
2021/11/30 04:43:19;;;;;;;13.60;12.70;;;2.00;99.90;;;;;;6215700;23;20437;-77
2021/11/30 04:45:56;;;;;;;13.63;12.73;;;2.00;99.90;;;;;;6217095;23;20408;-78
2021/11/30 04:48:24;;;;;;;12.70;11.90;;;2.00;99.90;;;;;;6191815;23;20841;-76
2021/11/30 04:50:52;;;;;;;12.70;11.80;;;2.00;99.90;;;;;;6216276;23;20413;-78
2021/11/30 04:53:21;;;;;;;13.17;12.13;;;2.00;99.90;;;;;;6216634;23;20424;-77
2021/11/30 04:55:51;;;;;;;13.57;12.30;;;2.00;99.90;;;;;;6189080;23;20429;-78
2021/11/30 04:58:18;;;;;;;13.20;12.30;;;2.00;99.90;;;;;;6190409;23;20415;-79
2021/11/30 05:00:46;;;;;;;13.43;12.63;;;1.90;99.90;;;;;;6190969;23;20836;-77
2021/11/30 05:03:13;;;;;;;13.07;12.20;;;2.00;99.90;;;;;;6189240;23;20531;-76
2021/11/30 05:05:41;;;;;;;13.13;12.37;;;1.90;99.90;;;;;;6215904;23;20471;-76
2021/11/30 05:08:09;;;;;;;13.60;12.70;;;2.00;99.90;;;;;;6216120;23;20385;-78
2021/11/30 05:10:36;;;;;;;14.17;12.80;;;1.90;99.90;;;;;;6190267;23;20447;-78
2021/11/30 05:13:04;;;;;;;13.87;12.77;;;1.90;99.90;;;;;;6189739;23;20438;-76
2021/11/30 05:15:32;;;;;;;14.03;12.93;;;1.90;99.90;;;;;;6214986;23;20447;-77
2021/11/30 05:17:59;;;;;;;13.53;12.57;;;1.80;99.90;;;;;;6188291;23;20419;-77
2021/11/30 05:20:26;;;;;;;13.47;12.43;;;1.90;99.90;;;;;;6214951;23;20456;-77
2021/11/30 05:22:54;;;;;;;13.23;12.43;;;1.80;99.90;;;;;;6217126;23;20419;-76
2021/11/30 05:25:22;;;;;;;13.07;12.27;;;1.80;99.90;;;;;;6189757;23;20423;-77
2021/11/30 05:27:49;;;;;;;13.50;12.43;;;1.90;99.90;;;;;;6215093;23;20868;-77
2021/11/30 05:30:19;;;;;;;13.17;12.37;;;1.90;99.90;;;;;;6213621;23;20397;-76
2021/11/30 05:33:12;;;;;;;12.73;11.90;;;1.90;99.90;;;;;;6215847;23;20958;-80
2021/11/30 05:35:41;;;;;;;12.60;11.80;;;1.90;99.90;;;;;;6193764;23;20437;-82
2021/11/30 05:38:08;;;;;;;12.97;11.87;;;2.00;99.90;;;;;;6195000;23;20409;-80
2021/11/30 05:40:35;;;;;;;13.50;12.60;;;2.00;99.90;;;;;;6195172;23;20528;-81
2021/11/30 05:43:02;;;;;;;13.43;12.53;;;2.00;99.90;;;;;;6194667;23;20481;-80
2021/11/30 05:45:30;;;;;;;13.47;12.67;;;2.00;99.90;;;;;;6194999;23;20507;-80
2021/11/30 05:47:57;;;;;;;13.10;12.37;;;2.00;99.90;;;;;;6220398;23;20385;-80
2021/11/30 05:50:24;;;;;;;13.60;12.70;;;2.00;99.90;;;;;;6194345;23;20409;-80
2021/11/30 05:52:51;;;;;;;13.20;12.40;;;2.00;99.90;;;;;;6193882;23;20437;-79
2021/11/30 05:55:18;;;;;;;12.87;12.17;;;2.00;99.90;;;;;;6200311;23;20428;-80
2021/11/30 05:57:45;;;;;;;13.90;13.00;;;2.00;99.90;;;;;;6189016;23;20410;-79
2021/11/30 06:00:17;;;;;;;14.03;12.83;;;2.00;99.90;;;;;;6191404;23;20920;-80
2021/11/30 06:03:02;;;;;;;13.00;12.20;;;2.00;99.90;;;;;;6189922;23;20493;-79
2021/11/30 06:05:31;;;;;;;13.27;12.27;;;2.00;99.90;;;;;;6189557;23;20387;-78
2021/11/30 06:07:58;;;;;;;13.07;12.23;;;2.00;99.90;;;;;;6189507;23;20394;-78
2021/11/30 06:10:26;;;;;;;13.43;12.53;;;2.10;99.90;;;;;;6188403;23;20394;-77
2021/11/30 06:12:53;;;;;;;13.60;12.60;;;2.10;99.90;;;;;;6186822;23;20418;-77
2021/11/30 06:15:20;;;;;;;13.73;12.90;;;2.10;99.90;;;;;;6183996;23;20421;-81
2021/11/30 06:17:49;;;;;;;13.57;12.53;;;2.10;99.90;;;;;;6186460;23;20409;-81
2021/11/30 06:20:17;;;;;;;13.83;13.00;;;2.10;99.90;;;;;;6185096;23;20448;-77
2021/11/30 06:22:43;;;;;;;12.93;12.23;;;2.10;99.90;;;;;;6186851;23;20735;-77
2021/11/30 06:25:10;;;;;;;14.00;13.00;;;2.10;99.90;;;;;;6185402;23;20699;-75
2021/11/30 06:27:37;;;;;;;12.77;11.97;;;2.10;99.90;;;;;;6184692;23;20469;-77
2021/11/30 06:30:06;;;;;;;13.67;12.83;;;2.10;99.90;;;;;;6184286;23;20411;-79
2021/11/30 06:32:33;;;;;;;14.43;13.43;;;2.10;99.90;;;;;;6185691;23;20455;-77
2021/11/30 06:35:02;;;;;;;13.40;12.60;;;2.20;99.90;;;;;;6184194;23;20422;-77
2021/11/30 06:37:29;;;;;;;13.37;12.47;;;2.20;99.90;;;;;;6183178;23;20408;-76
2021/11/30 06:39:57;;;;;;;13.70;12.70;;;2.10;99.90;;;;;;6182013;23;20439;-77
2021/11/30 06:42:24;;;;;;;14.07;13.07;;;2.10;99.90;;;;;;6186668;23;20418;-77
2021/11/30 06:44:51;;;;;;;13.97;13.07;;;2.20;99.90;;;;;;6184599;23;20411;-77
2021/11/30 06:47:18;;;;;;;14.20;13.03;;;2.20;99.90;;;;;;6183984;23;20436;-78
2021/11/30 06:49:45;;;;;;;13.40;12.37;;;2.20;99.90;;;;;;6187898;23;20407;-77
2021/11/30 06:52:13;;;;;;;14.10;13.10;;;2.20;99.90;;;;;;6184123;23;20481;-77
2021/11/30 06:54:43;;;;;;;14.87;13.43;;;2.20;99.90;;;;;;6195162;23;20405;-77
2021/11/30 06:57:11;;;;;;;13.70;12.80;;;2.20;99.90;;;;;;6214155;23;20413;-77
2021/11/30 06:59:38;;;;;;;13.50;12.60;;;2.20;99.90;;;;;;6189490;23;20410;-78
2021/11/30 07:02:05;;;;;;;14.47;13.40;;;2.20;99.90;;;;;;6214439;23;20406;-77
2021/11/30 07:04:34;;;;;;;13.30;12.50;;;2.20;99.90;;;;;;6189043;23;20508;-77
2021/11/30 07:07:07;;;;;;;13.40;12.60;;;2.20;99.90;;;;;;6213792;23;20452;-78
2021/11/30 07:09:47;;;;;;;14.40;13.40;;;2.20;99.90;;;;;;6214333;23;20419;-78
2021/11/30 07:12:25;;;;;;;14.83;13.70;;;2.10;99.90;;;;;;6189121;23;20958;-77
2021/11/30 07:14:52;;;;;;;14.37;13.37;;;2.10;99.90;;;;;;6218597;23;20899;-79
2021/11/30 07:17:19;;;;;;;14.43;13.33;;;2.10;99.90;;;;;;6215167;23;20386;-77
2021/11/30 07:19:45;;;;;;;14.30;13.30;;;2.10;99.90;;;;;;6216706;23;20393;-77
2021/11/30 07:22:12;;;;;;;13.97;13.07;;;2.10;99.90;;;;;;6213913;23;20438;-77
2021/11/30 07:24:40;;;;;;;15.00;14.00;;;2.10;99.90;;;;;;6214095;23;20960;-77
2021/11/30 07:27:07;;;;;;;14.43;13.53;;;2.10;99.90;;;;;;6215544;23;20389;-77
2021/11/30 07:29:34;;;;;;;14.03;13.13;;;2.10;99.90;;;;;;6189858;23;20424;-77
2021/11/30 07:32:01;;;;;;;13.67;12.77;;;2.10;99.90;;;;;;6214332;23;20763;-77
2021/11/30 07:34:29;;;;;;;14.00;13.00;;;2.10;99.90;;;;;;6215894;23;20395;-77
2021/11/30 07:36:56;;;;;;;14.60;13.50;;;2.10;99.90;;;;;;6214064;23;20415;-78
2021/11/30 07:39:24;;;;;;;13.67;12.73;;;2.10;99.90;;;;;;6213803;23;20413;-77
2021/11/30 07:41:52;;;;;;;12.97;12.13;;;2.20;99.90;;;;;;6188422;23;20436;-77
2021/11/30 07:44:19;;;;;;;13.10;12.17;;;2.20;99.90;;;;;;6215178;23;20379;-77
2021/11/30 07:46:46;;;;;;;13.57;12.63;;;2.30;99.90;;;;;;6215436;23;20716;-78
2021/11/30 07:49:13;;;;;;;13.33;12.37;;;2.30;99.90;;;;;;6188820;23;20820;-77
2021/11/30 07:51:40;;;;;;;13.20;12.33;;;2.40;99.90;;;;;;6188722;23;20470;-77
2021/11/30 07:54:08;;;;;;;12.93;12.13;;;2.40;99.90;;;;;;6214866;23;20442;-78
2021/11/30 07:56:35;;;;;;;13.10;12.30;;;2.40;99.90;;;;;;6215177;23;20764;-77
2021/11/30 07:59:03;;;;;;;12.87;12.13;;;2.40;99.90;;;;;;6189172;23;20414;-77
2021/11/30 08:01:31;;;;;;;13.00;12.30;;;2.50;99.90;;;;;;6215157;23;20811;-78
2021/11/30 08:03:57;;;;;;;13.03;12.23;;;2.50;99.90;;;;;;6215056;23;20414;-77
2021/11/30 08:06:24;;;;;;;12.50;11.70;;;2.50;99.90;;;;;;6214082;23;20472;-77
2021/11/30 08:08:54;;;;;;;12.70;11.93;;;2.60;99.90;;;;;;6213835;23;20411;-77
2021/11/30 08:11:20;;;;;;;13.10;12.30;;;2.60;99.90;;;;;;6215676;23;20439;-77
2021/11/30 08:13:47;;;;;;;13.30;12.40;;;2.60;99.90;;;;;;6213850;23;20195;-77
2021/11/30 08:16:16;;;;;;;12.63;11.80;;;2.70;99.90;;;;;;6188839;23;20427;-78
2021/11/30 08:18:42;;;;;;;13.47;12.57;;;2.70;99.90;;;;;;6215135;23;20443;-77
2021/11/30 08:21:09;;;;;;;13.10;12.20;;;2.80;99.90;;;;;;6213555;23;20443;-77
2021/11/30 08:23:36;;;;;;;12.93;12.07;;;2.80;99.90;;;;;;6188374;23;20824;-77
2021/11/30 08:26:04;;;;;;;13.50;12.63;;;2.80;99.90;;;;;;6188733;23;20417;-77
2021/11/30 08:28:30;;;;;;;13.43;12.50;;;2.80;99.90;;;;;;6187911;23;20416;-77
2021/11/30 08:30:57;;;;;;;13.17;12.37;;;2.80;99.90;;;;;;6213996;23;20469;-77
2021/11/30 08:33:26;;;;;;;13.33;12.53;;;2.80;99.90;;;;;;6214657;23;20411;-77
2021/11/30 08:35:55;;;;;;;13.57;12.57;;;2.90;99.90;;;;;;6214915;23;20170;-77
2021/11/30 08:38:22;;;;;;;13.57;12.77;;;2.90;99.90;;;;;;6213352;23;20420;-77
2021/11/30 08:40:49;;;;;;;13.40;12.50;;;2.90;99.90;;;;;;6215294;23;20431;-78
2021/11/30 08:43:17;;;;;;;13.27;12.37;;;2.90;99.90;;;;;;6187840;23;20462;-77
2021/11/30 08:45:43;;;;;;;13.23;12.33;;;2.90;99.90;;;;;;6188113;23;20465;-78
2021/11/30 08:48:10;;;;;;;13.73;12.87;;;2.90;99.90;;;;;;6214878;23;20548;-77
2021/11/30 08:50:39;;;;;;;13.87;12.97;;;2.90;99.90;;;;;;6213011;23;20793;-77
2021/11/30 08:53:06;;;;;;;13.17;12.37;;;2.90;99.90;;;;;;6188172;23;20948;-77
2021/11/30 08:55:32;;;;;;;14.07;13.27;;;2.90;99.90;;;;;;6187931;23;20418;-78
2021/11/30 08:57:59;;;;;;;13.27;12.43;;;3.00;99.90;;;;;;6214650;23;20460;-77
2021/11/30 09:00:28;;;;;;;13.67;12.87;;;3.00;99.90;;;;;;6189329;23;20442;-77
2021/11/30 09:02:56;;;;;;;13.63;12.73;;;3.10;99.90;;;;;;6214475;23;20221;-77
2021/11/30 09:05:23;;;;;;;12.63;11.93;;;3.10;99.90;;;;;;6214508;23;20394;-77
2021/11/30 09:07:52;;;;;;;13.30;12.27;;;3.20;99.90;;;;;;6187548;23;20963;-77
2021/11/30 09:10:20;;;;;;;13.13;12.30;;;3.20;99.90;;;;;;6214577;23;20478;-78
2021/11/30 09:12:47;;;;;;;12.47;11.77;;;3.20;99.90;;;;;;6188047;23;20195;-77
2021/11/30 09:15:14;;;;;;;12.40;11.70;;;3.20;99.90;;;;;;6187872;23;20445;-77
2021/11/30 09:17:42;;;;;;;13.30;12.40;;;3.30;99.90;;;;;;6187873;23;20415;-77
2021/11/30 09:20:11;;;;;;;13.20;12.30;;;3.30;99.90;;;;;;6187770;23;20614;-77
2021/11/30 09:22:38;;;;;;;12.00;11.27;;;3.40;99.90;;;;;;6187838;23;20222;-77
2021/11/30 09:25:08;;;;;;;12.33;11.53;;;3.40;99.90;;;;;;6214477;23;20225;-77
2021/11/30 09:27:35;;;;;;;12.87;12.17;;;3.50;99.90;;;;;;6188261;23;20175;-77
2021/11/30 09:30:04;;;;;;;13.23;12.33;;;3.50;99.90;;;;;;6188018;23;20174;-77
2021/11/30 09:32:31;;;;;;;12.17;11.47;;;3.50;99.90;;;;;;6187683;23;20195;-77
2021/11/30 09:34:58;;;;;;;12.40;11.50;;;3.60;99.90;;;;;;6214132;23;20174;-78
2021/11/30 09:37:25;;;;;;;12.97;12.07;;;3.60;99.90;;;;;;6187242;23;20179;-77
2021/11/30 09:39:53;;;;;;;11.80;11.10;;;3.60;99.90;;;;;;6187717;23;20231;-77
2021/11/30 09:42:21;;;;;;;11.83;10.90;;;3.60;99.90;;;;;;6213919;23;20250;-77
2021/11/30 09:44:48;;;;;;;11.67;10.97;;;3.60;99.90;;;;;;6187662;23;20176;-77
2021/11/30 09:47:15;;;;;;;11.40;10.70;;;3.60;99.90;;;;;;6187135;23;20183;-77
2021/11/30 09:49:43;;;;;;;11.17;10.47;;;3.60;99.90;;;;;;6214373;23;20163;-78
2021/11/30 09:52:10;;;;;;;11.53;10.83;;;3.70;99.90;;;;;;6214374;23;20237;-78
2021/11/30 09:54:37;;;;;;;11.80;11.00;;;3.70;99.90;;;;;;6187401;23;20183;-77
2021/11/30 09:57:04;;;;;;;11.20;10.50;;;3.80;99.90;;;;;;6187148;23;20226;-78
2021/11/30 09:59:32;;;;;;;11.77;11.07;;;3.90;99.90;;;;;;6187512;23;20167;-78
2021/11/30 10:01:59;;;;;;;11.20;10.60;;;4.10;99.90;;;;;;6187363;23;20183;-78
2021/11/30 10:04:26;;;;;;;12.00;11.30;;;4.10;99.90;;;;;;6213899;23;20229;-77
2021/11/30 10:06:53;;;;;;;12.27;11.47;;;4.10;99.90;;;;;;6187260;23;20226;-77
2021/11/30 10:09:23;;;;;;;11.80;11.10;;;4.10;99.90;;;;;;6214005;23;20221;-78
2021/11/30 10:11:57;;;;;;;11.60;10.80;;;4.10;99.90;;;;;;6214081;23;20591;-77
2021/11/30 10:14:33;;;;;;;11.30;10.60;;;4.10;99.90;;;;;;6214258;23;20598;-77
2021/11/30 10:17:18;;;;;;;10.97;10.33;;;4.00;99.90;;;;;;6187937;23;20167;-77
2021/11/30 10:19:52;;;;;;;11.70;11.00;;;4.10;99.90;;;;;;6189709;23;20163;-77
2021/11/30 10:22:35;;;;;;;11.00;10.30;;;4.10;99.90;;;;;;6189580;23;20195;-77
2021/11/30 10:25:18;;;;;;;11.30;10.70;;;4.00;99.90;;;;;;6216116;23;20537;-77
2021/11/30 10:27:46;;;;;;;11.00;10.30;;;4.10;99.90;;;;;;6189164;23;20174;-77
2021/11/30 10:30:16;;;;;;;10.60;9.97;;;4.10;99.90;;;;;;6189384;23;20176;-78
2021/11/30 10:32:46;;;;;;;10.27;9.67;;;4.20;99.90;;;;;;6216404;23;20192;-77
2021/11/30 10:35:14;;;;;;;11.20;10.40;;;4.20;99.90;;;;;;6189380;23;20183;-77
2021/11/30 10:37:42;;;;;;;11.00;10.27;;;4.10;99.90;;;;;;6216089;23;20167;-77
2021/11/30 10:40:12;;;;;;;11.57;10.87;;;4.10;99.90;;;;;;6189156;23;20611;-78
2021/11/30 10:42:49;;;;;;;11.60;10.80;;;4.10;99.90;;;;;;6189203;23;20203;-78
2021/11/30 10:45:30;;;;;;;11.07;10.27;;;4.10;99.90;;;;;;6215875;23;20678;-78
2021/11/30 10:48:08;;;;;;;11.03;10.33;;;4.10;99.90;;;;;;6188964;23;20168;-77
2021/11/30 10:50:37;;;;;;;10.80;10.20;;;4.00;99.90;;;;;;6189097;23;20677;-77
2021/11/30 10:53:14;;;;;;;10.80;10.20;;;4.00;99.90;;;;;;6189041;23;20249;-78
2021/11/30 10:55:47;;;;;;;11.03;10.43;;;4.10;99.90;;;;;;6189467;23;20178;-78
2021/11/30 10:58:14;;;;;;;10.83;10.23;;;4.00;99.90;;;;;;6188877;23;20218;-78
2021/11/30 11:00:42;;;;;;;11.17;10.57;;;4.10;99.90;;;;;;6189114;23;20564;-77
2021/11/30 11:03:16;;;;;;;11.23;10.60;;;4.10;99.90;;;;;;6189377;23;20214;-78
2021/11/30 11:05:45;;;;;;;11.20;10.60;;;4.00;99.90;;;;;;6217101;23;20163;-77
2021/11/30 11:08:14;;;;;;;11.80;11.00;;;4.10;99.90;;;;;;6214950;23;20164;-77
2021/11/30 11:10:43;;;;;;;11.33;10.70;;;4.00;99.90;;;;;;6188951;23;20175;-77
2021/11/30 11:13:25;;;;;;;11.30;10.70;;;4.10;99.90;;;;;;6215436;23;20195;-77
2021/11/30 11:15:54;;;;;;;11.17;10.50;;;4.00;99.90;;;;;;6215756;23;20597;-77
2021/11/30 11:18:25;;;;;;;11.50;10.80;;;4.00;99.90;;;;;;6188466;23;20179;-78
2021/11/30 11:21:08;;;;;;;11.60;10.90;;;4.00;99.90;;;;;;6215604;23;20155;-77
2021/11/30 11:23:36;;;;;;;11.50;10.80;;;4.10;99.90;;;;;;6188511;23;20521;-77
2021/11/30 11:26:25;;;;;;;11.73;11.00;;;4.10;99.90;;;;;;6188672;23;20246;-79
2021/11/30 11:28:53;;;;;;;11.80;11.00;;;4.10;99.90;;;;;;6188103;23;20167;-79
2021/11/30 11:31:22;;;;;;;11.50;10.90;;;4.10;99.90;;;;;;6215259;23;20163;-79
2021/11/30 11:33:51;;;;;;;11.60;10.90;;;4.10;99.90;;;;;;6188823;23;20250;-79
2021/11/30 11:36:19;;;;;;;11.67;10.90;;;4.10;99.90;;;;;;6188994;23;20567;-79
2021/11/30 11:38:46;;;;;;;11.27;10.67;;;4.10;99.90;;;;;;6215610;23;20167;-79
2021/11/30 11:41:14;;;;;;;11.47;10.83;;;4.10;99.90;;;;;;6188855;23;20191;-79
2021/11/30 11:43:42;;;;;;;11.50;10.90;;;4.10;99.90;;;;;;6215169;23;20270;-79
2021/11/30 11:46:11;;;;;;;11.47;10.83;;;4.10;99.90;;;;;;6215069;23;20167;-79
2021/11/30 11:48:38;;;;;;;11.60;10.90;;;4.10;99.90;;;;;;6188293;23;20171;-79
2021/11/30 11:51:08;;;;;;;11.17;10.57;;;4.10;99.90;;;;;;6215143;23;20171;-77
2021/11/30 11:53:36;;;;;;;11.37;10.77;;;4.20;99.90;;;;;;6188383;23;20191;-80
2021/11/30 11:56:14;;;;;;;11.53;10.93;;;4.20;99.90;;;;;;6188595;23;20186;-79
2021/11/30 11:58:43;;;;;;;13.47;12.57;;;4.20;99.90;;;;;;6214846;23;20491;-79
2021/11/30 12:01:16;;;;;;;12.10;11.40;;;4.20;99.90;;;;;;6214943;23;20171;-79
2021/11/30 12:04:00;;;;;;;11.67;10.97;;;4.20;99.90;;;;;;6215059;23;20665;-79
2021/11/30 12:06:32;;;;;;;11.07;10.47;;;4.30;99.90;;;;;;6188361;23;20179;-79
2021/11/30 12:09:14;;;;;;;11.07;10.47;;;4.30;99.90;;;;;;6188391;23;20168;-79
2021/11/30 12:11:42;;;;;;;11.37;10.73;;;4.30;99.90;;;;;;6215137;23;20151;-79
2021/11/30 12:14:15;;;;;;;11.30;10.70;;;4.30;99.90;;;;;;6214753;23;20716;-79
2021/11/30 12:17:10;;;;;;;11.17;10.57;;;4.30;99.90;;;;;;6215031;23;20155;-79
2021/11/30 12:19:43;;;;;;;11.73;11.13;;;4.20;99.90;;;;;;6188356;23;20222;-78
2021/11/30 12:22:13;;;;;;;11.70;10.77;;;4.20;99.90;;;;;;6188335;23;20277;-79
2021/11/30 12:24:43;;;;;;;11.60;10.90;;;4.10;99.90;;;;;;6214032;23;20606;-80
2021/11/30 12:27:38;;;;;;;12.00;11.20;;;4.10;99.90;;;;;;6188009;23;20183;-79
2021/11/30 12:30:07;;;;;;;11.63;11.03;;;4.10;99.90;;;;;;6188796;23;20226;-79
2021/11/30 12:32:37;;;;;;;12.37;11.57;;;4.10;99.90;;;;;;6214705;23;20496;-79
2021/11/30 12:35:07;;;;;;;11.37;10.77;;;4.10;99.90;;;;;;6214720;23;20222;-79
2021/11/30 12:37:35;;;;;;;11.77;11.07;;;4.10;99.90;;;;;;6188373;23;20198;-79
2021/11/30 12:40:04;;;;;;;11.80;11.10;;;4.10;99.90;;;;;;6188133;23;20641;-79
2021/11/30 12:42:31;;;;;;;12.63;11.83;;;4.10;99.90;;;;;;6187918;23;20662;-79
2021/11/30 12:44:59;;;;;;;12.07;11.37;;;4.00;99.90;;;;;;6214935;23;20217;-79
2021/11/30 12:47:27;;;;;;;12.60;11.90;;;4.00;99.90;;;;;;6188140;23;20202;-79